createdAt,value
2019-01-26T00:03:25.912Z,68.33
2019-01-26T00:08:31.888Z,66.47
2019-01-26T00:13:35.298Z,62.77
2019-01-26T00:18:40.577Z,66.27
2019-01-26T00:23:43.914Z,63.80
2019-01-26T00:28:47.100Z,58.00
2019-01-26T00:33:50.587Z,63.27
2019-01-26T00:38:54.102Z,61.77
2019-01-26T00:43:58.780Z,60.00
2019-01-26T00:49:05.158Z,62.10
2019-01-26T00:54:08.494Z,59.70
2019-01-26T00:59:12.111Z,58.30
2019-01-26T01:04:15.598Z,70.27
2019-01-26T01:09:25.186Z,55.33
2019-01-26T01:14:28.791Z,46.80
2019-01-26T01:19:31.978Z,55.17
2019-01-26T01:24:35.310Z,53.60
2019-01-26T01:29:38.620Z,53.33
2019-01-26T01:34:41.996Z,47.40
2019-01-26T01:39:51.030Z,50.70
2019-01-26T01:44:54.476Z,57.73
2019-01-26T01:49:57.548Z,49.77
2019-01-26T01:55:01.063Z,52.47
2019-01-26T02:00:07.943Z,50.63
2019-01-26T02:05:11.406Z,52.00
2019-01-26T02:10:16.227Z,50.00
2019-01-26T02:15:24.032Z,51.30
2019-01-26T02:20:27.479Z,56.07
2019-01-26T02:25:30.861Z,60.90
2019-01-26T02:30:34.377Z,65.23
2019-01-26T02:35:37.819Z,71.90
2019-01-26T02:40:41.409Z,80.17
2019-01-26T02:45:44.582Z,59.40
2019-01-26T02:50:48.541Z,59.47
2019-01-26T02:55:51.880Z,90.17
2019-01-26T03:01:03.089Z,105.10
2019-01-26T03:06:06.561Z,115.77
2019-01-26T03:11:13.356Z,100.93
2019-01-26T03:16:16.814Z,135.90
2019-01-26T03:21:20.280Z,121.97
2019-01-26T03:26:23.871Z,150.20
2019-01-26T03:31:27.536Z,563.63
2019-01-26T03:36:31.061Z,121.00
2019-01-26T03:41:34.381Z,168.57
2019-01-26T03:46:37.946Z,135.97
2019-01-26T03:51:41.303Z,107.20
2019-01-26T03:56:44.886Z,94.53
2019-01-26T04:01:48.258Z,101.90
2019-01-26T04:06:51.648Z,110.10
2019-01-26T04:11:54.955Z,94.70
2019-01-26T04:16:58.152Z,109.67
2019-01-26T04:22:01.640Z,124.77
2019-01-26T04:27:07.069Z,85.37
2019-01-26T04:32:13.417Z,88.67
2019-01-26T04:37:16.742Z,94.17
2019-01-26T04:42:20.308Z,94.87
2019-01-26T04:47:30.852Z,98.97
2019-01-26T04:52:28.928Z,95.87
2019-01-26T04:57:32.232Z,96.70
2019-01-26T05:02:35.804Z,87.67
2019-01-26T05:07:39.074Z,92.87
2019-01-26T05:12:42.628Z,85.43
2019-01-26T05:17:46.142Z,73.03
2019-01-26T05:22:49.508Z,72.37
2019-01-26T05:27:58.844Z,69.53
2019-01-26T05:33:02.319Z,75.40
2019-01-26T05:38:05.468Z,57.53
2019-01-26T05:43:08.672Z,68.50
2019-01-26T05:48:12.251Z,53.37
2019-01-26T05:53:15.626Z,54.43
2019-01-26T05:58:19.002Z,61.67
2019-01-26T06:03:22.594Z,64.87
2019-01-26T06:08:25.992Z,67.13
2019-01-26T06:13:29.280Z,57.27
2019-01-26T06:18:36.106Z,57.93
2019-01-26T06:23:39.523Z,46.73
2019-01-26T06:28:42.965Z,56.07
2019-01-26T06:33:46.383Z,56.13
2019-01-26T06:38:49.707Z,53.03
2019-01-26T06:43:56.135Z,49.43
2019-01-26T06:49:04.841Z,52.17
2019-01-26T06:54:10.530Z,39.00
2019-01-26T06:59:17.233Z,50.37
2019-01-26T07:04:33.446Z,49.63
2019-01-26T07:09:36.756Z,48.43
2019-01-26T07:14:43.241Z,45.17
2019-01-26T07:19:47.991Z,37.60
2019-01-26T07:24:51.807Z,37.33
2019-01-26T07:29:59.831Z,43.27
2019-01-26T07:35:03.753Z,39.57
2019-01-26T07:40:10.446Z,35.43
2019-01-26T07:45:16.190Z,35.60
2019-01-26T07:50:19.955Z,40.10
2019-01-26T07:55:23.254Z,38.33
2019-01-26T08:00:27.098Z,36.60
2019-01-26T08:05:30.732Z,40.13
2019-01-26T08:10:33.932Z,30.80
2019-01-26T08:15:38.014Z,36.63
2019-01-26T08:20:43.594Z,35.67
2019-01-26T08:25:53.684Z,37.67
2019-01-26T08:30:57.110Z,34.80
2019-01-26T08:36:00.681Z,35.77
2019-01-26T08:41:04.068Z,32.23
2019-01-26T08:46:07.506Z,33.13
2019-01-26T08:51:14.789Z,33.53
2019-01-26T08:56:18.257Z,35.67
2019-01-26T09:01:21.670Z,34.60
2019-01-26T09:06:32.636Z,34.70
2019-01-26T09:11:59.899Z,36.37
2019-01-26T09:17:08.843Z,30.37
2019-01-26T09:22:12.256Z,29.00
2019-01-26T09:27:18.900Z,32.80
2019-01-26T09:32:22.314Z,28.80
2019-01-26T09:37:28.612Z,25.33
2019-01-26T09:42:34.849Z,26.93
2019-01-26T09:47:38.435Z,30.17
2019-01-26T09:52:42.158Z,24.13
2019-01-26T09:57:51.144Z,21.07
2019-01-26T10:02:54.510Z,19.77
2019-01-26T10:07:58.032Z,20.93
2019-01-26T10:13:01.201Z,15.20
2019-01-26T10:18:05.295Z,18.40
2019-01-26T10:23:08.715Z,18.10
2019-01-26T10:28:12.188Z,22.50
2019-01-26T10:33:15.536Z,18.07
2019-01-26T10:38:19.077Z,20.33
2019-01-26T10:43:23.182Z,15.00
2019-01-26T10:48:26.597Z,16.57
2019-01-26T10:53:29.465Z,16.73
2019-01-26T10:58:32.869Z,16.53
2019-01-26T11:03:37.040Z,13.20
2019-01-26T11:08:40.445Z,13.60
2019-01-26T11:13:43.978Z,14.40
2019-01-26T11:18:47.319Z,15.87
2019-01-26T11:24:07.137Z,12.20
2019-01-26T11:29:10.503Z,13.13
2019-01-26T11:34:13.903Z,14.63
2019-01-26T11:39:17.113Z,13.60
2019-01-26T11:44:26.045Z,16.20
2019-01-26T11:49:29.525Z,15.30
2019-01-26T11:54:32.910Z,16.43
2019-01-26T11:59:37.989Z,11.50
2019-01-26T12:05:13.249Z,13.80
2019-01-26T12:10:18.938Z,12.30
2019-01-26T12:15:22.433Z,11.17
2019-01-26T12:20:26.248Z,11.33
2019-01-26T12:25:29.868Z,12.80
2019-01-26T12:30:33.315Z,11.00
2019-01-26T12:35:50.928Z,10.30
2019-01-26T12:40:54.163Z,9.70
2019-01-26T12:45:57.211Z,16.03
2019-01-26T12:51:00.755Z,12.10
2019-01-26T12:56:05.334Z,16.13
2019-01-26T13:01:10.272Z,15.43
2019-01-26T13:06:13.755Z,12.77
2019-01-26T13:11:24.423Z,10.13
2019-01-26T13:16:29.572Z,10.40
2019-01-26T13:21:33.005Z,12.30
2019-01-26T13:26:36.366Z,15.90
2019-01-26T13:31:39.784Z,13.67
2019-01-26T13:36:45.867Z,13.00
2019-01-26T13:41:49.149Z,13.60
2019-01-26T13:46:52.632Z,12.60
2019-01-26T13:51:55.867Z,13.83
2019-01-26T13:56:59.176Z,10.30
2019-01-26T14:02:02.486Z,12.90
2019-01-26T14:07:08.801Z,12.10
2019-01-26T14:12:12.073Z,12.37
2019-01-26T14:17:18.305Z,11.10
2019-01-26T14:22:22.054Z,10.43
2019-01-26T14:27:25.566Z,12.10
2019-01-26T14:32:28.424Z,12.47
2019-01-26T14:37:31.722Z,13.90
2019-01-26T14:42:35.085Z,12.97
2019-01-26T14:47:44.675Z,11.20
2019-01-26T14:52:50.776Z,12.43
2019-01-26T14:57:58.156Z,11.57
2019-01-26T15:03:01.593Z,12.63
2019-01-26T15:08:07.841Z,10.10
2019-01-26T15:13:10.907Z,9.80
2019-01-26T15:18:14.983Z,11.03
2019-01-26T15:23:18.319Z,10.67
2019-01-26T15:28:21.879Z,8.87
2019-01-26T15:33:25.216Z,10.27
2019-01-26T15:38:31.777Z,8.50
2019-01-26T15:43:38.261Z,9.37
2019-01-26T15:48:41.810Z,10.43
2019-01-26T15:53:44.936Z,12.80
2019-01-26T15:58:48.233Z,13.70
2019-01-26T16:03:51.602Z,14.43
2019-01-26T16:08:55.018Z,13.00
2019-01-26T16:14:01.503Z,11.20
2019-01-26T16:19:04.807Z,13.37
2019-01-26T16:24:08.055Z,12.00
2019-01-26T16:29:11.539Z,10.13
2019-01-26T16:34:14.790Z,10.93
2019-01-26T16:39:18.002Z,10.30
2019-01-26T16:44:21.470Z,9.70
2019-01-26T16:49:24.808Z,10.40
2019-01-26T16:54:28.326Z,8.67
2019-01-26T16:59:31.548Z,11.00
2019-01-26T17:04:35.014Z,10.40
2019-01-26T17:09:38.147Z,9.47
2019-01-26T17:14:42.920Z,9.67
2019-01-26T17:19:46.797Z,11.17
2019-01-26T17:24:51.152Z,11.00
2019-01-26T17:30:06.012Z,12.00
2019-01-26T17:35:24.687Z,13.20
2019-01-26T17:40:37.717Z,10.80
2019-01-26T17:45:42.806Z,11.40
2019-01-26T17:50:46.074Z,14.43
2019-01-26T17:55:52.660Z,14.53
2019-01-26T18:00:57.432Z,13.30
2019-01-26T18:06:03.455Z,12.50
2019-01-26T18:11:06.818Z,12.77
2019-01-26T18:16:10.055Z,9.47
2019-01-26T18:21:13.361Z,12.07
2019-01-26T18:26:16.722Z,13.93
2019-01-26T18:31:19.946Z,13.83
2019-01-26T18:36:23.569Z,15.20
2019-01-26T18:41:26.801Z,19.87
2019-01-26T18:46:30.170Z,19.10
2019-01-26T18:51:33.580Z,21.13
2019-01-26T18:56:36.865Z,23.43
2019-01-26T19:01:40.305Z,24.60
2019-01-26T19:06:46.933Z,27.33
2019-01-26T19:11:50.412Z,23.63
2019-01-26T19:16:53.649Z,26.53
2019-01-26T19:21:57.031Z,26.27
2019-01-26T19:27:00.568Z,26.97
2019-01-26T19:32:04.267Z,31.77
2019-01-26T19:37:09.374Z,28.47
2019-01-26T19:42:12.753Z,27.90
2019-01-26T19:47:17.984Z,27.57
2019-01-26T19:52:21.353Z,31.13
2019-01-26T19:57:26.078Z,33.37
2019-01-26T20:02:29.897Z,29.50
2019-01-26T20:07:36.303Z,36.03
2019-01-26T20:12:39.795Z,40.53
2019-01-26T20:17:48.938Z,31.77
2019-01-26T20:22:52.191Z,37.10
2019-01-26T20:27:55.667Z,29.97
2019-01-26T20:33:02.220Z,28.63
2019-01-26T20:38:05.659Z,28.90
2019-01-26T20:43:08.960Z,31.33
2019-01-26T20:48:17.940Z,31.77
2019-01-26T20:53:21.428Z,31.70
2019-01-26T20:58:25.114Z,32.27
2019-01-26T21:03:34.366Z,34.80
2019-01-26T21:08:40.954Z,29.37
2019-01-26T21:13:44.288Z,33.23
2019-01-26T21:18:47.629Z,34.00
2019-01-26T21:23:53.388Z,34.57
2019-01-26T21:28:56.809Z,31.93
2019-01-26T21:34:14.098Z,37.40
2019-01-26T21:39:24.783Z,36.23
2019-01-26T21:44:28.300Z,36.90
2019-01-26T21:49:31.815Z,42.30
2019-01-26T21:54:44.387Z,39.17
2019-01-26T21:59:47.570Z,40.33
2019-01-26T22:04:50.856Z,42.73
2019-01-26T22:09:56.957Z,45.57
2019-01-26T22:15:03.795Z,37.67
2019-01-26T22:20:09.232Z,42.90
2019-01-26T22:25:13.137Z,42.07
2019-01-26T22:30:35.181Z,41.93
2019-01-26T22:35:39.796Z,39.93
2019-01-26T22:40:45.973Z,40.10
2019-01-26T22:45:49.487Z,39.40
2019-01-26T22:50:52.901Z,43.60
2019-01-26T22:55:56.334Z,41.97
2019-01-26T23:01:21.394Z,40.83
2019-01-26T23:06:49.567Z,42.17
2019-01-26T23:12:25.194Z,41.43
2019-01-26T23:18:14.791Z,40.03
2019-01-26T23:23:49.024Z,43.00
2019-01-26T23:29:24.795Z,37.73
2019-01-26T23:34:28.164Z,36.40
2019-01-26T23:39:31.726Z,46.63
2019-01-26T23:44:34.993Z,48.97
2019-01-26T23:49:38.384Z,47.57
2019-01-26T23:54:41.601Z,49.60
2019-01-26T23:59:45.070Z,45.43
